createdAt,value
2022-11-29T00:01:05.384Z,17.05
2022-11-29T00:03:32.750Z,17.60
2022-11-29T00:06:10.687Z,18.58
2022-11-29T00:08:37.481Z,17.95
2022-11-29T00:11:12.531Z,17.70
2022-11-29T00:13:39.351Z,17.48
2022-11-29T00:16:10.298Z,18.23
2022-11-29T00:18:36.967Z,18.40
2022-11-29T00:21:07.954Z,17.58
2022-11-29T00:23:35.428Z,17.85
2022-11-29T00:26:06.303Z,17.83
2022-11-29T00:28:33.600Z,18.85
2022-11-29T00:31:00.353Z,17.63
2022-11-29T00:33:27.396Z,17.73
2022-11-29T00:35:53.989Z,18.50
2022-11-29T00:38:20.606Z,17.38
2022-11-29T00:40:51.824Z,17.60
2022-11-29T00:43:18.468Z,17.17
2022-11-29T00:45:45.033Z,17.42
2022-11-29T00:48:11.663Z,16.23
2022-11-29T00:50:38.242Z,17.67
2022-11-29T00:53:04.812Z,16.55
2022-11-29T00:55:31.387Z,17.60
2022-11-29T00:57:57.987Z,17.02
2022-11-29T01:00:24.677Z,17.10
2022-11-29T01:02:51.241Z,17.27
2022-11-29T01:05:18.261Z,16.80
2022-11-29T01:07:44.924Z,18.70
2022-11-29T01:10:11.615Z,17.55
2022-11-29T01:12:38.888Z,17.77
2022-11-29T01:15:06.508Z,17.80
2022-11-29T01:17:35.830Z,18.40
2022-11-29T01:20:03.411Z,17.83
2022-11-29T01:22:29.993Z,17.77
2022-11-29T01:24:56.550Z,18.02
2022-11-29T01:27:23.154Z,17.08
2022-11-29T01:29:49.720Z,18.05
2022-11-29T01:32:16.312Z,17.65
2022-11-29T01:34:43.229Z,19.27
2022-11-29T01:37:09.993Z,17.15
2022-11-29T01:39:36.593Z,17.38
2022-11-29T01:42:03.364Z,17.55
2022-11-29T01:44:29.912Z,17.58
2022-11-29T01:46:57.401Z,17.35
2022-11-29T01:49:27.571Z,18.40
2022-11-29T01:52:09.194Z,17.90
2022-11-29T01:54:37.791Z,17.10
2022-11-29T01:57:05.752Z,16.92
2022-11-29T01:59:32.329Z,18.35
2022-11-29T02:02:03.177Z,18.08
2022-11-29T02:04:36.460Z,17.67
2022-11-29T02:07:03.305Z,17.95
2022-11-29T02:09:29.997Z,18.75
2022-11-29T02:12:22.832Z,16.67
2022-11-29T02:14:58.548Z,15.82
2022-11-29T02:17:35.699Z,17.30
2022-11-29T02:20:39.092Z,16.42
2022-11-29T02:23:39.691Z,17.33
2022-11-29T02:26:31.100Z,16.73
2022-11-29T02:29:03.259Z,17.67
2022-11-29T02:31:48.695Z,17.90
2022-11-29T02:34:38.451Z,17.25
2022-11-29T02:37:59.586Z,17.23
2022-11-29T02:41:00.389Z,17.92
2022-11-29T02:43:34.198Z,17.10
2022-11-29T02:46:06.775Z,17.60
2022-11-29T02:49:04.323Z,18.45
2022-11-29T02:51:45.978Z,17.40
2022-11-29T02:54:21.331Z,17.85
2022-11-29T02:56:58.626Z,17.35
2022-11-29T02:59:37.741Z,18.63
2022-11-29T03:02:16.436Z,16.63
2022-11-29T03:04:48.788Z,17.42
2022-11-29T03:07:27.819Z,16.85
2022-11-29T03:10:06.114Z,17.02
2022-11-29T03:12:39.633Z,18.17
2022-11-29T03:15:09.104Z,17.25
2022-11-29T03:18:00.247Z,16.35
2022-11-29T03:21:01.763Z,16.63
2022-11-29T03:23:31.039Z,16.70
2022-11-29T03:25:59.725Z,16.70
2022-11-29T03:28:29.360Z,18.20
2022-11-29T03:31:05.851Z,16.00
2022-11-29T03:33:41.518Z,17.10
2022-11-29T03:36:29.702Z,17.95
2022-11-29T03:38:58.893Z,16.63
2022-11-29T03:41:26.537Z,16.95
2022-11-29T03:44:15.135Z,16.45
2022-11-29T03:46:58.613Z,16.05
2022-11-29T03:49:32.939Z,17.52
2022-11-29T03:51:59.646Z,17.35
2022-11-29T03:54:28.988Z,17.48
2022-11-29T03:56:55.859Z,16.77
2022-11-29T03:59:34.555Z,17.48
2022-11-29T04:02:22.824Z,17.30
2022-11-29T04:05:07.481Z,17.52
2022-11-29T04:07:54.014Z,16.45
2022-11-29T04:10:47.902Z,16.02
2022-11-29T04:13:14.533Z,16.15
2022-11-29T04:15:59.618Z,16.45
2022-11-29T04:18:52.188Z,14.95
2022-11-29T04:21:50.649Z,16.08
2022-11-29T04:24:32.337Z,14.75
2022-11-29T04:27:26.758Z,14.55
2022-11-29T04:30:04.566Z,14.40
2022-11-29T04:32:56.235Z,13.82
2022-11-29T04:36:05.278Z,13.20
2022-11-29T04:38:58.946Z,14.30
2022-11-29T04:41:31.502Z,14.50
2022-11-29T04:43:58.028Z,12.95
2022-11-29T04:46:51.764Z,14.32
2022-11-29T04:49:40.470Z,12.43
2022-11-29T04:52:42.356Z,11.38
2022-11-29T04:55:27.634Z,10.40
2022-11-29T04:58:27.978Z,11.13
2022-11-29T05:01:33.694Z,10.00
2022-11-29T05:04:21.587Z,10.35
2022-11-29T05:07:06.576Z,9.48
2022-11-29T05:09:36.098Z,9.85
2022-11-29T05:12:27.351Z,9.98
2022-11-29T05:14:59.732Z,9.75
2022-11-29T05:17:38.520Z,10.30
2022-11-29T05:20:32.828Z,10.23
2022-11-29T05:23:31.795Z,10.60
2022-11-29T05:26:01.878Z,11.05
2022-11-29T05:28:55.188Z,10.90
2022-11-29T05:31:46.232Z,10.40
2022-11-29T05:34:34.867Z,10.35
2022-11-29T05:37:01.971Z,10.00
2022-11-29T05:39:40.829Z,11.20
2022-11-29T05:42:18.115Z,10.45
2022-11-29T05:45:10.905Z,11.63
2022-11-29T05:47:47.306Z,11.15
2022-11-29T05:50:16.454Z,11.18
2022-11-29T05:53:01.740Z,11.13
2022-11-29T05:55:41.096Z,11.82
2022-11-29T05:58:13.395Z,11.30
2022-11-29T06:01:07.209Z,11.55
2022-11-29T06:03:35.931Z,11.13
2022-11-29T06:06:16.959Z,11.80
2022-11-29T06:08:48.520Z,11.75
2022-11-29T06:11:42.045Z,11.32
2022-11-29T06:17:07.426Z,11.00
2022-11-29T06:19:58.601Z,13.07
2022-11-29T06:22:45.169Z,11.68
2022-11-29T06:25:28.529Z,12.68
2022-11-29T06:30:33.485Z,13.48
2022-11-29T06:33:06.541Z,17.00
2022-11-29T06:38:18.454Z,15.60
2022-11-29T06:40:45.298Z,14.98
2022-11-29T06:43:12.221Z,15.40
2022-11-29T06:45:40.531Z,15.40
2022-11-29T06:48:07.277Z,16.98
2022-11-29T06:50:49.832Z,17.17
2022-11-29T06:53:24.601Z,16.83
2022-11-29T06:55:53.719Z,16.85
2022-11-29T06:58:35.970Z,19.60
2022-11-29T07:01:09.940Z,18.55
2022-11-29T07:03:59.261Z,17.10
2022-11-29T07:06:27.600Z,18.35
2022-11-29T07:08:59.492Z,18.55
2022-11-29T07:11:26.725Z,20.35
2022-11-29T07:13:53.686Z,19.73
2022-11-29T07:17:02.480Z,17.92
2022-11-29T07:19:41.027Z,18.15
2022-11-29T07:22:25.928Z,18.23
2022-11-29T07:25:14.127Z,16.65
2022-11-29T07:28:22.445Z,15.50
2022-11-29T07:31:18.047Z,13.93
2022-11-29T07:34:10.378Z,14.00
2022-11-29T07:37:10.654Z,13.35
2022-11-29T07:40:12.110Z,12.52
2022-11-29T07:42:38.627Z,13.60
2022-11-29T07:45:09.969Z,12.98
2022-11-29T07:47:36.640Z,14.68
2022-11-29T07:50:04.126Z,14.52
2022-11-29T07:52:30.656Z,14.13
2022-11-29T07:54:57.251Z,15.02
2022-11-29T07:57:23.814Z,13.40
2022-11-29T07:59:50.424Z,15.70
2022-11-29T08:02:27.237Z,12.45
2022-11-29T08:04:53.874Z,14.18
2022-11-29T08:07:20.723Z,13.27
2022-11-29T08:09:47.599Z,13.45
2022-11-29T08:12:14.384Z,12.60
2022-11-29T08:14:40.975Z,13.93
2022-11-29T08:17:07.585Z,12.35
2022-11-29T08:19:34.137Z,11.70
2022-11-29T08:22:00.776Z,10.25
2022-11-29T08:24:27.496Z,11.02
2022-11-29T08:26:54.359Z,11.95
2022-11-29T08:29:20.993Z,11.68
2022-11-29T08:31:53.380Z,13.20
2022-11-29T08:34:21.685Z,11.27
2022-11-29T08:36:48.918Z,12.13
2022-11-29T08:39:15.626Z,11.73
2022-11-29T08:41:42.465Z,10.02
2022-11-29T08:44:09.233Z,9.38
2022-11-29T08:46:54.688Z,9.45
2022-11-29T08:49:21.283Z,8.15
2022-11-29T08:51:47.876Z,9.07
2022-11-29T08:54:14.472Z,7.60
2022-11-29T08:59:27.656Z,7.82
2022-11-29T09:01:54.399Z,7.70
2022-11-29T09:04:21.083Z,8.25
2022-11-29T09:06:49.699Z,8.98
2022-11-29T09:09:16.760Z,8.73
2022-11-29T09:11:48.109Z,9.32
2022-11-29T09:14:16.728Z,10.18
2022-11-29T09:16:43.358Z,11.15
2022-11-29T09:19:10.308Z,11.60
2022-11-29T09:21:36.977Z,12.38
2022-11-29T09:24:06.486Z,12.60
2022-11-29T09:26:34.956Z,11.98
2022-11-29T09:29:03.303Z,13.48
2022-11-29T09:31:33.867Z,12.43
2022-11-29T09:34:00.854Z,13.95
2022-11-29T09:36:29.183Z,13.60
2022-11-29T09:38:59.664Z,13.38
2022-11-29T09:41:32.273Z,14.27
2022-11-29T09:44:09.243Z,12.70
2022-11-29T09:46:58.920Z,14.23
2022-11-29T09:49:25.587Z,14.27
2022-11-29T09:52:05.029Z,13.02
2022-11-29T09:55:07.937Z,12.93
2022-11-29T09:57:34.562Z,12.83
2022-11-29T10:00:15.997Z,13.18
2022-11-29T10:02:47.738Z,12.40
2022-11-29T10:05:20.709Z,11.63
2022-11-29T10:08:03.962Z,11.40
2022-11-29T10:10:51.200Z,11.35
2022-11-29T10:13:20.827Z,11.40
2022-11-29T10:15:49.824Z,10.88
2022-11-29T10:18:23.294Z,11.27
2022-11-29T10:20:50.906Z,11.52
2022-11-29T10:23:43.459Z,11.60
2022-11-29T10:28:36.873Z,11.95
2022-11-29T10:31:13.041Z,11.50
2022-11-29T10:33:39.898Z,11.95
2022-11-29T10:36:38.795Z,11.02
2022-11-29T10:39:12.976Z,10.05
2022-11-29T10:41:40.966Z,10.10
2022-11-29T10:44:07.535Z,10.27
2022-11-29T10:46:35.304Z,10.65
2022-11-29T10:49:05.104Z,11.07
2022-11-29T10:51:31.875Z,11.27
2022-11-29T10:54:15.118Z,10.50
2022-11-29T10:56:41.704Z,9.88
2022-11-29T10:59:09.452Z,9.82
2022-11-29T11:01:38.432Z,10.38
2022-11-29T11:04:07.467Z,10.63
2022-11-29T11:06:47.054Z,10.23
2022-11-29T11:09:16.637Z,10.57
2022-11-29T11:11:53.027Z,11.27
2022-11-29T11:14:22.526Z,10.18
2022-11-29T11:16:49.300Z,11.55
2022-11-29T11:19:30.424Z,10.73
2022-11-29T11:21:58.468Z,10.98
2022-11-29T11:24:29.671Z,10.27
2022-11-29T11:26:56.294Z,9.70
2022-11-29T11:29:25.912Z,10.32
2022-11-29T11:31:57.268Z,10.93
2022-11-29T11:34:34.257Z,11.68
2022-11-29T11:37:18.294Z,13.05
2022-11-29T11:39:46.692Z,11.80
2022-11-29T11:42:36.931Z,12.38
2022-11-29T11:45:23.367Z,12.77
2022-11-29T11:47:57.125Z,10.68
2022-11-29T11:50:27.702Z,11.25
2022-11-29T11:52:57.090Z,12.05
2022-11-29T11:55:32.717Z,11.82
2022-11-29T11:58:08.991Z,11.32
2022-11-29T12:01:06.858Z,11.57
2022-11-29T12:03:59.662Z,10.38
2022-11-29T12:06:26.178Z,10.02
2022-11-29T12:09:02.382Z,8.68
2022-11-29T12:11:29.418Z,8.57
2022-11-29T12:13:57.203Z,8.77
2022-11-29T12:16:29.759Z,8.98
2022-11-29T12:19:12.779Z,9.40
2022-11-29T12:21:41.617Z,9.75
2022-11-29T12:24:15.490Z,10.65
2022-11-29T12:26:57.025Z,10.23
2022-11-29T12:29:24.801Z,9.98
2022-11-29T12:32:06.041Z,10.57
2022-11-29T12:34:54.712Z,11.32
2022-11-29T12:37:56.456Z,10.95
2022-11-29T12:40:41.788Z,11.45
2022-11-29T12:43:17.438Z,10.75
2022-11-29T12:46:05.513Z,10.93
2022-11-29T12:48:50.446Z,11.77
2022-11-29T12:51:39.644Z,11.27
2022-11-29T12:54:32.801Z,10.55
2022-11-29T12:57:05.349Z,11.63
2022-11-29T12:59:56.187Z,11.68
2022-11-29T13:02:41.231Z,11.07
2022-11-29T13:05:13.900Z,13.07
2022-11-29T13:07:58.392Z,12.10
2022-11-29T13:10:52.115Z,11.88
2022-11-29T13:13:40.657Z,12.18
2022-11-29T13:16:31.336Z,10.82
2022-11-29T13:18:58.185Z,13.07
2022-11-29T13:21:57.743Z,10.73
2022-11-29T13:24:27.364Z,11.93
2022-11-29T13:26:53.952Z,13.18
2022-11-29T13:29:20.600Z,12.02
2022-11-29T13:31:47.843Z,10.98
2022-11-29T13:34:34.665Z,11.18
2022-11-29T13:37:28.810Z,11.35
2022-11-29T13:40:15.160Z,11.50
2022-11-29T13:42:51.746Z,12.80
2022-11-29T13:45:27.165Z,12.38
2022-11-29T13:47:56.244Z,12.93
2022-11-29T13:50:43.834Z,12.20
2022-11-29T13:53:21.990Z,11.57
2022-11-29T13:56:00.316Z,12.10
2022-11-29T13:58:38.022Z,11.38
2022-11-29T14:01:12.171Z,11.68
2022-11-29T14:03:43.138Z,13.40
2022-11-29T14:06:31.431Z,13.30
2022-11-29T14:09:27.103Z,12.40
2022-11-29T14:11:59.465Z,12.45
2022-11-29T14:14:31.551Z,13.38
2022-11-29T14:17:03.758Z,12.10
2022-11-29T14:19:34.038Z,12.38
2022-11-29T14:22:07.191Z,12.60
2022-11-29T14:24:37.298Z,13.25
2022-11-29T14:27:10.433Z,13.23
2022-11-29T14:32:49.677Z,12.95
2022-11-29T14:35:30.395Z,13.07
2022-11-29T14:38:15.240Z,12.95
2022-11-29T14:40:42.175Z,12.65
2022-11-29T14:43:24.051Z,12.70
2022-11-29T14:46:29.266Z,12.20
2022-11-29T14:48:56.677Z,12.10
2022-11-29T14:51:33.996Z,13.00
2022-11-29T14:54:07.390Z,13.40
2022-11-29T14:56:45.319Z,13.55
2022-11-29T14:59:46.196Z,12.00
2022-11-29T15:02:28.268Z,11.95
2022-11-29T15:05:29.882Z,12.23
2022-11-29T15:08:15.751Z,12.95
2022-11-29T15:10:54.059Z,16.58
2022-11-29T15:13:28.772Z,14.25
2022-11-29T15:16:17.983Z,13.90
2022-11-29T15:18:51.150Z,14.27
2022-11-29T15:21:36.070Z,13.43
2022-11-29T15:24:12.529Z,14.00
2022-11-29T15:26:40.657Z,13.60
2022-11-29T15:29:19.328Z,14.68
2022-11-29T15:31:48.627Z,15.43
2022-11-29T15:34:21.006Z,16.23
2022-11-29T15:36:48.328Z,15.73
2022-11-29T15:39:30.047Z,13.43
2022-11-29T15:42:04.290Z,13.70
2022-11-29T15:44:32.957Z,12.88
2022-11-29T15:47:16.364Z,13.40
2022-11-29T15:49:44.291Z,13.40
2022-11-29T15:52:20.065Z,15.43
2022-11-29T15:54:50.787Z,14.25
2022-11-29T15:57:21.395Z,15.48
2022-11-29T15:59:56.780Z,14.15
2022-11-29T16:02:28.900Z,13.45
2022-11-29T16:05:10.445Z,14.33
2022-11-29T16:07:37.609Z,14.38
2022-11-29T16:10:17.246Z,14.15
2022-11-29T16:13:03.106Z,13.75
2022-11-29T16:15:30.945Z,13.57
2022-11-29T16:18:20.803Z,13.52
2022-11-29T16:21:04.473Z,13.60
2022-11-29T16:23:40.201Z,12.75
2022-11-29T16:26:15.929Z,13.48
2022-11-29T16:28:45.158Z,13.90
2022-11-29T16:31:20.006Z,13.43
2022-11-29T16:33:50.319Z,15.13
2022-11-29T16:36:26.840Z,15.00
2022-11-29T16:38:55.784Z,16.15
2022-11-29T16:41:33.631Z,15.73
2022-11-29T16:44:03.541Z,15.13
2022-11-29T16:46:38.208Z,15.43
2022-11-29T16:49:33.983Z,15.77
2022-11-29T16:52:01.030Z,15.13
2022-11-29T16:54:33.778Z,14.68
2022-11-29T16:57:04.050Z,15.18
2022-11-29T16:59:32.082Z,15.90
2022-11-29T17:01:58.846Z,15.38
2022-11-29T17:04:26.105Z,15.45
2022-11-29T17:06:56.178Z,16.08
2022-11-29T17:09:28.010Z,16.38
2022-11-29T17:11:55.764Z,19.05
2022-11-29T17:14:22.445Z,18.67
2022-11-29T17:16:52.272Z,18.20
2022-11-29T17:19:20.537Z,19.55
2022-11-29T17:21:47.643Z,18.83
2022-11-29T17:24:16.364Z,17.45
2022-11-29T17:26:43.694Z,18.60
2022-11-29T17:29:11.332Z,17.27
2022-11-29T17:31:38.121Z,17.10
2022-11-29T17:34:05.202Z,16.30
2022-11-29T17:36:32.246Z,16.88
2022-11-29T17:38:59.540Z,16.98
2022-11-29T17:41:28.468Z,16.77
2022-11-29T17:43:55.847Z,18.25
2022-11-29T17:46:30.112Z,20.50
2022-11-29T17:48:59.049Z,21.95
2022-11-29T17:54:12.574Z,21.02
2022-11-29T17:56:39.175Z,19.45
2022-11-29T17:59:05.924Z,20.77
2022-11-29T18:01:33.799Z,21.02
2022-11-29T18:04:02.192Z,21.95
2022-11-29T18:06:35.146Z,21.55
2022-11-29T18:09:02.895Z,20.60
2022-11-29T18:11:32.957Z,20.80
2022-11-29T18:14:03.180Z,21.52
2022-11-29T18:16:34.945Z,21.17
2022-11-29T18:19:02.401Z,22.02
2022-11-29T18:21:29.300Z,21.80
2022-11-29T18:23:56.412Z,21.27
2022-11-29T18:26:24.115Z,21.23
2022-11-29T18:28:50.951Z,21.58
2022-11-29T18:31:20.060Z,22.08
2022-11-29T18:33:48.508Z,20.60
2022-11-29T18:36:17.020Z,21.50
2022-11-29T18:38:45.092Z,22.45
2022-11-29T18:41:17.842Z,23.42
2022-11-29T18:43:44.991Z,24.02
2022-11-29T18:46:16.135Z,21.98
2022-11-29T18:48:44.056Z,24.63
2022-11-29T18:51:12.746Z,21.55
2022-11-29T18:53:39.593Z,23.70
2022-11-29T18:56:17.363Z,23.27
2022-11-29T18:58:45.652Z,23.48
2022-11-29T19:01:15.912Z,23.92
2022-11-29T19:03:44.987Z,23.13
2022-11-29T19:06:14.277Z,23.60
2022-11-29T19:08:41.369Z,24.30
2022-11-29T19:11:09.248Z,25.20
2022-11-29T19:13:36.201Z,24.05
2022-11-29T19:16:03.647Z,24.02
2022-11-29T19:18:30.637Z,25.63
2022-11-29T19:21:07.888Z,24.90
2022-11-29T19:23:34.618Z,26.10
2022-11-29T19:26:09.160Z,26.00
2022-11-29T19:28:37.199Z,24.38
2022-11-29T19:31:05.397Z,27.05
2022-11-29T19:33:33.617Z,26.17
2022-11-29T19:36:17.057Z,27.45
2022-11-29T19:38:46.565Z,23.95
2022-11-29T19:43:48.057Z,28.67
2022-11-29T19:46:17.036Z,27.77
2022-11-29T19:48:43.958Z,28.13
2022-11-29T19:51:11.570Z,26.88
2022-11-29T19:53:38.612Z,28.27
2022-11-29T19:56:11.406Z,28.10
2022-11-29T19:58:38.033Z,27.30
2022-11-29T20:01:16.313Z,25.05
2022-11-29T20:03:43.521Z,24.98
2022-11-29T20:06:10.368Z,25.80
2022-11-29T20:08:37.415Z,25.27
2022-11-29T20:11:08.626Z,24.52
2022-11-29T20:13:36.116Z,24.17
2022-11-29T20:16:09.666Z,24.58
2022-11-29T20:18:37.696Z,27.15
2022-11-29T20:21:09.228Z,24.75
2022-11-29T20:23:35.865Z,24.27
2022-11-29T20:26:02.588Z,26.05
2022-11-29T20:28:29.494Z,27.05
2022-11-29T20:30:56.817Z,26.50
2022-11-29T20:33:25.445Z,27.08
2022-11-29T20:36:00.630Z,26.17
2022-11-29T20:38:33.475Z,27.38
2022-11-29T20:41:05.266Z,25.48
2022-11-29T20:43:53.527Z,26.83
2022-11-29T20:46:20.365Z,27.75
2022-11-29T20:48:47.240Z,27.70
2022-11-29T20:51:14.011Z,25.63
2022-11-29T20:53:44.472Z,25.40
2022-11-29T20:56:12.132Z,27.10
2022-11-29T20:58:39.078Z,25.13
2022-11-29T21:01:06.559Z,26.52
2022-11-29T21:03:33.268Z,25.08
2022-11-29T21:06:02.417Z,25.90
2022-11-29T21:08:29.269Z,26.30
2022-11-29T21:11:02.415Z,26.38
2022-11-29T21:15:56.250Z,25.48
2022-11-29T21:18:27.874Z,25.77
2022-11-29T21:21:04.736Z,26.17
2022-11-29T21:23:45.871Z,26.52
2022-11-29T21:26:17.640Z,25.35
2022-11-29T21:28:57.905Z,26.27
2022-11-29T21:31:24.762Z,27.10
2022-11-29T21:33:51.588Z,25.67
2022-11-29T21:36:19.069Z,27.20
2022-11-29T21:38:52.328Z,27.15
2022-11-29T21:41:21.449Z,29.65
2022-11-29T21:44:06.126Z,28.33
2022-11-29T21:46:34.139Z,30.05
2022-11-29T21:49:00.775Z,31.70
2022-11-29T21:51:27.361Z,30.60
2022-11-29T21:53:53.939Z,29.75
2022-11-29T21:56:20.969Z,31.02
2022-11-29T21:58:47.653Z,29.65
2022-11-29T22:01:19.559Z,29.88
2022-11-29T22:03:46.565Z,29.92
2022-11-29T22:06:18.268Z,30.48
2022-11-29T22:08:44.907Z,28.08
2022-11-29T22:11:15.166Z,30.52
2022-11-29T22:14:01.954Z,31.27
2022-11-29T22:16:29.374Z,32.15
2022-11-29T22:18:56.071Z,29.55
2022-11-29T22:21:22.765Z,30.92
2022-11-29T22:23:49.391Z,30.02
2022-11-29T22:26:16.000Z,28.98
2022-11-29T22:28:42.651Z,29.95
2022-11-29T22:31:10.515Z,30.75
2022-11-29T22:33:37.669Z,29.70
2022-11-29T22:36:08.523Z,30.30
2022-11-29T22:38:35.339Z,32.28
2022-11-29T22:41:02.964Z,31.25
2022-11-29T22:43:32.916Z,30.30
2022-11-29T22:46:11.493Z,30.92
2022-11-29T22:48:39.257Z,30.50
2022-11-29T22:51:07.683Z,32.17
2022-11-29T22:53:35.233Z,28.80
2022-11-29T22:56:02.900Z,31.10
2022-11-29T22:58:29.765Z,31.30
2022-11-29T23:01:10.003Z,32.00
2022-11-29T23:03:39.026Z,32.10
2022-11-29T23:06:07.081Z,32.08
2022-11-29T23:08:34.551Z,32.13
2022-11-29T23:11:04.275Z,31.33
2022-11-29T23:13:35.403Z,30.05
2022-11-29T23:16:02.900Z,33.78
2022-11-29T23:18:29.808Z,33.13
2022-11-29T23:21:06.614Z,32.65
2022-11-29T23:23:33.316Z,32.78
2022-11-29T23:26:00.458Z,33.47
2022-11-29T23:28:27.677Z,32.05
2022-11-29T23:30:54.846Z,32.58
2022-11-29T23:33:22.445Z,33.97
2022-11-29T23:35:49.706Z,31.45
2022-11-29T23:38:16.815Z,31.58
2022-11-29T23:40:46.255Z,33.38
2022-11-29T23:43:12.824Z,31.35
2022-11-29T23:45:40.225Z,30.70
2022-11-29T23:48:06.865Z,32.60
2022-11-29T23:50:33.622Z,31.05
2022-11-29T23:53:00.243Z,31.33
2022-11-29T23:55:27.107Z,34.22
2022-11-29T23:57:53.704Z,32.88
